sensor_id;sensor_type;location;lat;lon;timestamp;P1;durP1;ratioP1;P2;durP2;ratioP2
8001;SDS011;4046;48.774;8.732;2023-05-29T00:01:33;7.33;;;6.73;;
8001;SDS011;4046;48.774;8.732;2023-05-29T00:04:00;6.80;;;6.20;;
8001;SDS011;4046;48.774;8.732;2023-05-29T00:06:26;6.33;;;5.80;;
8001;SDS011;4046;48.774;8.732;2023-05-29T00:08:52;6.47;;;5.87;;
8001;SDS011;4046;48.774;8.732;2023-05-29T00:11:21;7.40;;;6.80;;
8001;SDS011;4046;48.774;8.732;2023-05-29T00:13:48;6.97;;;6.37;;
8001;SDS011;4046;48.774;8.732;2023-05-29T00:16:14;7.37;;;6.70;;
8001;SDS011;4046;48.774;8.732;2023-05-29T00:18:43;6.73;;;6.13;;
8001;SDS011;4046;48.774;8.732;2023-05-29T00:21:13;6.60;;;6.10;;
8001;SDS011;4046;48.774;8.732;2023-05-29T00:23:39;7.57;;;6.47;;
8001;SDS011;4046;48.774;8.732;2023-05-29T00:26:06;7.13;;;6.53;;
8001;SDS011;4046;48.774;8.732;2023-05-29T00:28:34;7.60;;;6.80;;
8001;SDS011;4046;48.774;8.732;2023-05-29T00:31:02;7.30;;;6.67;;
8001;SDS011;4046;48.774;8.732;2023-05-29T00:33:28;6.30;;;5.80;;
8001;SDS011;4046;48.774;8.732;2023-05-29T00:35:54;6.90;;;6.30;;
8001;SDS011;4046;48.774;8.732;2023-05-29T00:38:21;6.30;;;5.70;;
8001;SDS011;4046;48.774;8.732;2023-05-29T00:40:49;7.73;;;7.03;;
8001;SDS011;4046;48.774;8.732;2023-05-29T00:43:16;7.40;;;6.70;;
8001;SDS011;4046;48.774;8.732;2023-05-29T00:45:42;6.77;;;6.27;;
8001;SDS011;4046;48.774;8.732;2023-05-29T00:48:08;6.83;;;6.23;;
8001;SDS011;4046;48.774;8.732;2023-05-29T00:50:34;6.57;;;5.97;;
8001;SDS011;4046;48.774;8.732;2023-05-29T00:53:01;6.77;;;6.10;;
8001;SDS011;4046;48.774;8.732;2023-05-29T00:55:28;7.23;;;6.30;;
8001;SDS011;4046;48.774;8.732;2023-05-29T00:57:55;6.70;;;6.10;;
8001;SDS011;4046;48.774;8.732;2023-05-29T01:00:21;6.80;;;6.20;;
8001;SDS011;4046;48.774;8.732;2023-05-29T01:02:48;6.70;;;6.10;;
8001;SDS011;4046;48.774;8.732;2023-05-29T01:05:14;6.10;;;5.53;;
8001;SDS011;4046;48.774;8.732;2023-05-29T01:07:41;6.90;;;5.90;;
8001;SDS011;4046;48.774;8.732;2023-05-29T01:10:08;6.60;;;6.10;;
8001;SDS011;4046;48.774;8.732;2023-05-29T01:29:15;6.40;;;5.90;;
8001;SDS011;4046;48.774;8.732;2023-05-29T01:31:45;6.63;;;6.13;;
8001;SDS011;4046;48.774;8.732;2023-05-29T01:34:13;6.07;;;5.47;;
8001;SDS011;4046;48.774;8.732;2023-05-29T01:36:39;6.30;;;5.80;;
8001;SDS011;4046;48.774;8.732;2023-05-29T01:39:05;6.70;;;6.10;;
8001;SDS011;4046;48.774;8.732;2023-05-29T01:41:32;6.10;;;5.60;;
8001;SDS011;4046;48.774;8.732;2023-05-29T01:44:00;7.07;;;6.40;;
8001;SDS011;4046;48.774;8.732;2023-05-29T01:46:29;6.60;;;6.00;;
8001;SDS011;4046;48.774;8.732;2023-05-29T01:48:55;7.13;;;6.47;;
8001;SDS011;4046;48.774;8.732;2023-05-29T01:51:21;7.10;;;6.50;;
8001;SDS011;4046;48.774;8.732;2023-05-29T01:53:48;6.67;;;6.17;;
8001;SDS011;4046;48.774;8.732;2023-05-29T01:56:14;6.67;;;6.17;;
8001;SDS011;4046;48.774;8.732;2023-05-29T01:58:41;6.77;;;6.27;;
8001;SDS011;4046;48.774;8.732;2023-05-29T02:01:07;6.43;;;5.93;;
8001;SDS011;4046;48.774;8.732;2023-05-29T02:03:35;6.60;;;6.00;;
8001;SDS011;4046;48.774;8.732;2023-05-29T02:06:01;6.80;;;6.27;;
8001;SDS011;4046;48.774;8.732;2023-05-29T02:08:28;6.17;;;5.70;;
8001;SDS011;4046;48.774;8.732;2023-05-29T02:10:54;7.07;;;6.47;;
8001;SDS011;4046;48.774;8.732;2023-05-29T02:13:21;6.30;;;5.80;;
8001;SDS011;4046;48.774;8.732;2023-05-29T02:15:47;6.80;;;6.30;;
8001;SDS011;4046;48.774;8.732;2023-05-29T02:18:14;7.10;;;6.50;;
8001;SDS011;4046;48.774;8.732;2023-05-29T02:20:42;7.00;;;6.40;;
8001;SDS011;4046;48.774;8.732;2023-05-29T02:23:09;7.00;;;6.40;;
8001;SDS011;4046;48.774;8.732;2023-05-29T02:25:35;7.10;;;6.53;;
8001;SDS011;4046;48.774;8.732;2023-05-29T02:28:02;6.40;;;5.80;;
8001;SDS011;4046;48.774;8.732;2023-05-29T02:30:28;6.60;;;6.00;;
8001;SDS011;4046;48.774;8.732;2023-05-29T02:32:55;7.00;;;6.40;;
8001;SDS011;4046;48.774;8.732;2023-05-29T02:35:22;7.10;;;6.50;;
8001;SDS011;4046;48.774;8.732;2023-05-29T02:37:49;7.10;;;6.50;;
8001;SDS011;4046;48.774;8.732;2023-05-29T02:40:16;6.23;;;5.73;;
8001;SDS011;4046;48.774;8.732;2023-05-29T02:42:43;6.40;;;5.90;;
8001;SDS011;4046;48.774;8.732;2023-05-29T02:45:10;6.77;;;6.20;;
8001;SDS011;4046;48.774;8.732;2023-05-29T02:47:36;6.63;;;6.13;;
8001;SDS011;4046;48.774;8.732;2023-05-29T02:50:04;6.70;;;6.13;;
8001;SDS011;4046;48.774;8.732;2023-05-29T02:52:34;6.13;;;5.60;;
8001;SDS011;4046;48.774;8.732;2023-05-29T02:55:05;6.03;;;5.60;;
8001;SDS011;4046;48.774;8.732;2023-05-29T02:57:32;6.73;;;6.23;;
8001;SDS011;4046;48.774;8.732;2023-05-29T03:00:01;6.53;;;6.03;;
8001;SDS011;4046;48.774;8.732;2023-05-29T03:02:31;6.40;;;5.90;;
8001;SDS011;4046;48.774;8.732;2023-05-29T03:04:58;5.90;;;5.40;;
8001;SDS011;4046;48.774;8.732;2023-05-29T03:07:24;7.37;;;6.70;;
8001;SDS011;4046;48.774;8.732;2023-05-29T03:09:51;6.03;;;5.63;;
8001;SDS011;4046;48.774;8.732;2023-05-29T03:12:17;7.00;;;6.40;;
8001;SDS011;4046;48.774;8.732;2023-05-29T03:14:44;6.70;;;6.00;;
8001;SDS011;4046;48.774;8.732;2023-05-29T03:17:10;6.87;;;6.37;;
8001;SDS011;4046;48.774;8.732;2023-05-29T03:19:37;6.60;;;6.10;;
8001;SDS011;4046;48.774;8.732;2023-05-29T03:22:04;5.90;;;5.50;;
8001;SDS011;4046;48.774;8.732;2023-05-29T03:24:30;6.47;;;5.97;;
8001;SDS011;4046;48.774;8.732;2023-05-29T03:26:56;5.87;;;5.47;;
8001;SDS011;4046;48.774;8.732;2023-05-29T03:29:23;6.50;;;6.00;;
8001;SDS011;4046;48.774;8.732;2023-05-29T03:31:49;7.17;;;6.57;;
8001;SDS011;4046;48.774;8.732;2023-05-29T03:34:15;6.40;;;5.90;;
8001;SDS011;4046;48.774;8.732;2023-05-29T03:36:42;6.93;;;6.33;;
8001;SDS011;4046;48.774;8.732;2023-05-29T03:39:08;6.33;;;5.83;;
8001;SDS011;4046;48.774;8.732;2023-05-29T03:41:34;5.70;;;5.30;;
8001;SDS011;4046;48.774;8.732;2023-05-29T03:44:01;5.90;;;5.50;;
8001;SDS011;4046;48.774;8.732;2023-05-29T03:46:27;6.60;;;6.07;;
8001;SDS011;4046;48.774;8.732;2023-05-29T03:48:53;6.50;;;5.90;;
8001;SDS011;4046;48.774;8.732;2023-05-29T03:51:19;6.83;;;6.23;;
8001;SDS011;4046;48.774;8.732;2023-05-29T03:53:46;5.67;;;5.17;;
8001;SDS011;4046;48.774;8.732;2023-05-29T03:56:12;6.30;;;5.80;;
8001;SDS011;4046;48.774;8.732;2023-05-29T03:58:38;5.60;;;5.20;;
8001;SDS011;4046;48.774;8.732;2023-05-29T04:01:05;5.83;;;5.43;;
8001;SDS011;4046;48.774;8.732;2023-05-29T04:03:31;7.43;;;5.97;;
8001;SDS011;4046;48.774;8.732;2023-05-29T04:05:57;6.53;;;5.97;;
8001;SDS011;4046;48.774;8.732;2023-05-29T04:08:24;6.30;;;5.80;;
8001;SDS011;4046;48.774;8.732;2023-05-29T04:10:51;6.43;;;5.90;;
8001;SDS011;4046;48.774;8.732;2023-05-29T04:13:19;6.70;;;6.10;;
8001;SDS011;4046;48.774;8.732;2023-05-29T04:15:46;6.47;;;5.97;;
8001;SDS011;4046;48.774;8.732;2023-05-29T04:18:13;6.53;;;6.03;;
8001;SDS011;4046;48.774;8.732;2023-05-29T04:20:39;6.53;;;5.93;;
8001;SDS011;4046;48.774;8.732;2023-05-29T04:23:05;6.10;;;5.60;;
8001;SDS011;4046;48.774;8.732;2023-05-29T04:25:31;5.90;;;5.50;;
8001;SDS011;4046;48.774;8.732;2023-05-29T04:27:57;5.90;;;5.50;;
8001;SDS011;4046;48.774;8.732;2023-05-29T04:30:28;6.93;;;6.33;;
8001;SDS011;4046;48.774;8.732;2023-05-29T04:32:54;6.50;;;5.93;;
8001;SDS011;4046;48.774;8.732;2023-05-29T04:35:20;6.10;;;5.60;;
8001;SDS011;4046;48.774;8.732;2023-05-29T04:37:47;6.30;;;5.80;;
8001;SDS011;4046;48.774;8.732;2023-05-29T04:40:13;6.10;;;5.60;;
8001;SDS011;4046;48.774;8.732;2023-05-29T04:42:42;6.63;;;5.60;;
8001;SDS011;4046;48.774;8.732;2023-05-29T04:45:11;5.87;;;5.47;;
8001;SDS011;4046;48.774;8.732;2023-05-29T04:47:39;5.77;;;5.37;;
8001;SDS011;4046;48.774;8.732;2023-05-29T04:50:12;6.43;;;5.93;;
8001;SDS011;4046;48.774;8.732;2023-05-29T04:52:39;5.83;;;5.40;;
8001;SDS011;4046;48.774;8.732;2023-05-29T04:55:05;5.67;;;5.20;;
8001;SDS011;4046;48.774;8.732;2023-05-29T04:57:32;5.70;;;5.27;;
8001;SDS011;4046;48.774;8.732;2023-05-29T04:59:58;6.77;;;6.17;;
8001;SDS011;4046;48.774;8.732;2023-05-29T05:02:24;5.53;;;5.13;;
8001;SDS011;4046;48.774;8.732;2023-05-29T05:04:50;6.43;;;5.83;;
8001;SDS011;4046;48.774;8.732;2023-05-29T05:07:17;6.20;;;5.70;;
8001;SDS011;4046;48.774;8.732;2023-05-29T05:09:43;6.00;;;5.50;;
8001;SDS011;4046;48.774;8.732;2023-05-29T05:12:09;5.77;;;5.27;;
8001;SDS011;4046;48.774;8.732;2023-05-29T05:14:35;6.10;;;5.70;;
8001;SDS011;4046;48.774;8.732;2023-05-29T05:17:02;5.37;;;4.97;;
8001;SDS011;4046;48.774;8.732;2023-05-29T05:19:28;6.13;;;5.63;;
8001;SDS011;4046;48.774;8.732;2023-05-29T05:21:54;6.20;;;5.70;;
8001;SDS011;4046;48.774;8.732;2023-05-29T05:24:21;5.67;;;5.27;;
8001;SDS011;4046;48.774;8.732;2023-05-29T05:26:50;6.20;;;5.70;;
8001;SDS011;4046;48.774;8.732;2023-05-29T05:29:16;6.13;;;5.63;;
8001;SDS011;4046;48.774;8.732;2023-05-29T05:31:42;6.03;;;5.47;;
8001;SDS011;4046;48.774;8.732;2023-05-29T05:34:08;5.90;;;5.40;;
8001;SDS011;4046;48.774;8.732;2023-05-29T05:36:34;6.20;;;5.60;;
8001;SDS011;4046;48.774;8.732;2023-05-29T05:39:02;7.00;;;6.40;;
8001;SDS011;4046;48.774;8.732;2023-05-29T05:41:28;6.27;;;5.77;;
8001;SDS011;4046;48.774;8.732;2023-05-29T05:43:54;6.23;;;5.73;;
8001;SDS011;4046;48.774;8.732;2023-05-29T05:46:21;6.10;;;5.60;;
8001;SDS011;4046;48.774;8.732;2023-05-29T05:48:47;5.77;;;5.27;;
8001;SDS011;4046;48.774;8.732;2023-05-29T05:51:13;5.33;;;4.93;;
8001;SDS011;4046;48.774;8.732;2023-05-29T05:53:39;6.27;;;5.77;;
8001;SDS011;4046;48.774;8.732;2023-05-29T05:56:06;6.50;;;5.70;;
8001;SDS011;4046;48.774;8.732;2023-05-29T05:58:32;5.70;;;5.30;;
8001;SDS011;4046;48.774;8.732;2023-05-29T06:00:58;5.70;;;5.30;;
8001;SDS011;4046;48.774;8.732;2023-05-29T06:03:26;5.87;;;5.47;;
8001;SDS011;4046;48.774;8.732;2023-05-29T06:05:53;5.30;;;4.90;;
8001;SDS011;4046;48.774;8.732;2023-05-29T06:08:20;5.50;;;5.07;;
8001;SDS011;4046;48.774;8.732;2023-05-29T06:10:46;6.67;;;5.43;;
8001;SDS011;4046;48.774;8.732;2023-05-29T06:13:12;5.10;;;4.70;;
8001;SDS011;4046;48.774;8.732;2023-05-29T06:15:38;5.70;;;5.20;;
8001;SDS011;4046;48.774;8.732;2023-05-29T06:18:05;5.30;;;4.80;;
8001;SDS011;4046;48.774;8.732;2023-05-29T06:20:31;4.97;;;4.57;;
8001;SDS011;4046;48.774;8.732;2023-05-29T06:22:57;5.97;;;5.47;;
8001;SDS011;4046;48.774;8.732;2023-05-29T06:25:23;5.43;;;4.93;;
8001;SDS011;4046;48.774;8.732;2023-05-29T06:27:59;4.90;;;4.50;;
8001;SDS011;4046;48.774;8.732;2023-05-29T06:30:28;5.40;;;4.97;;
8001;SDS011;4046;48.774;8.732;2023-05-29T06:32:54;5.80;;;5.30;;
8001;SDS011;4046;48.774;8.732;2023-05-29T06:35:21;5.70;;;5.20;;
8001;SDS011;4046;48.774;8.732;2023-05-29T06:37:47;6.27;;;5.70;;
8001;SDS011;4046;48.774;8.732;2023-05-29T06:40:13;5.50;;;5.00;;
8001;SDS011;4046;48.774;8.732;2023-05-29T06:42:41;4.73;;;4.33;;
8001;SDS011;4046;48.774;8.732;2023-05-29T06:45:10;5.10;;;4.70;;
8001;SDS011;4046;48.774;8.732;2023-05-29T06:47:39;5.47;;;5.00;;
8001;SDS011;4046;48.774;8.732;2023-05-29T06:50:06;5.27;;;4.77;;
8001;SDS011;4046;48.774;8.732;2023-05-29T06:52:33;5.00;;;4.63;;
8001;SDS011;4046;48.774;8.732;2023-05-29T06:54:59;4.80;;;4.40;;
8001;SDS011;4046;48.774;8.732;2023-05-29T06:57:26;4.83;;;4.50;;
8001;SDS011;4046;48.774;8.732;2023-05-29T06:59:53;5.20;;;4.80;;
8001;SDS011;4046;48.774;8.732;2023-05-29T07:02:19;5.30;;;4.90;;
8001;SDS011;4046;48.774;8.732;2023-05-29T07:04:46;5.10;;;4.70;;
8001;SDS011;4046;48.774;8.732;2023-05-29T07:07:12;5.00;;;4.60;;
8001;SDS011;4046;48.774;8.732;2023-05-29T07:09:38;4.53;;;4.23;;
8001;SDS011;4046;48.774;8.732;2023-05-29T07:12:05;4.80;;;4.40;;
8001;SDS011;4046;48.774;8.732;2023-05-29T07:14:31;4.70;;;4.30;;
8001;SDS011;4046;48.774;8.732;2023-05-29T07:16:58;4.63;;;4.33;;
8001;SDS011;4046;48.774;8.732;2023-05-29T07:19:25;4.90;;;4.50;;
8001;SDS011;4046;48.774;8.732;2023-05-29T07:21:51;4.60;;;4.30;;
8001;SDS011;4046;48.774;8.732;2023-05-29T07:24:17;5.00;;;4.60;;
8001;SDS011;4046;48.774;8.732;2023-05-29T07:26:45;4.87;;;4.47;;
8001;SDS011;4046;48.774;8.732;2023-05-29T07:29:11;5.23;;;4.83;;
8001;SDS011;4046;48.774;8.732;2023-05-29T07:31:42;4.47;;;4.17;;
8001;SDS011;4046;48.774;8.732;2023-05-29T07:34:08;4.77;;;4.37;;
8001;SDS011;4046;48.774;8.732;2023-05-29T07:36:44;4.60;;;4.20;;
8001;SDS011;4046;48.774;8.732;2023-05-29T07:39:32;4.27;;;3.97;;
8001;SDS011;4046;48.774;8.732;2023-05-29T07:41:59;4.50;;;4.20;;
8001;SDS011;4046;48.774;8.732;2023-05-29T07:44:29;4.83;;;4.43;;
8001;SDS011;4046;48.774;8.732;2023-05-29T07:46:55;4.40;;;4.10;;
8001;SDS011;4046;48.774;8.732;2023-05-29T07:49:21;4.00;;;3.70;;
8001;SDS011;4046;48.774;8.732;2023-05-29T07:51:47;4.73;;;4.33;;
8001;SDS011;4046;48.774;8.732;2023-05-29T07:54:14;3.70;;;3.40;;
8001;SDS011;4046;48.774;8.732;2023-05-29T07:56:43;4.30;;;4.00;;
8001;SDS011;4046;48.774;8.732;2023-05-29T07:59:10;4.73;;;4.43;;
8001;SDS011;4046;48.774;8.732;2023-05-29T08:01:36;4.40;;;4.10;;
8001;SDS011;4046;48.774;8.732;2023-05-29T08:04:03;4.17;;;3.87;;
8001;SDS011;4046;48.774;8.732;2023-05-29T08:06:29;4.17;;;3.87;;
8001;SDS011;4046;48.774;8.732;2023-05-29T08:08:58;3.90;;;3.70;;
8001;SDS011;4046;48.774;8.732;2023-05-29T08:11:24;4.30;;;4.00;;
8001;SDS011;4046;48.774;8.732;2023-05-29T08:13:51;4.23;;;3.93;;
8001;SDS011;4046;48.774;8.732;2023-05-29T08:16:17;4.03;;;3.83;;
8001;SDS011;4046;48.774;8.732;2023-05-29T08:18:43;4.50;;;4.20;;
8001;SDS011;4046;48.774;8.732;2023-05-29T08:21:09;4.10;;;3.80;;
8001;SDS011;4046;48.774;8.732;2023-05-29T08:23:36;4.50;;;4.20;;
8001;SDS011;4046;48.774;8.732;2023-05-29T08:26:02;4.20;;;3.90;;
8001;SDS011;4046;48.774;8.732;2023-05-29T08:28:29;4.30;;;4.00;;
8001;SDS011;4046;48.774;8.732;2023-05-29T08:30:55;8.90;;;4.30;;
8001;SDS011;4046;48.774;8.732;2023-05-29T08:33:24;4.73;;;4.27;;
8001;SDS011;4046;48.774;8.732;2023-05-29T08:35:50;4.73;;;4.10;;
8001;SDS011;4046;48.774;8.732;2023-05-29T08:38:17;11.43;;;4.43;;
8001;SDS011;4046;48.774;8.732;2023-05-29T08:40:43;6.30;;;3.90;;
8001;SDS011;4046;48.774;8.732;2023-05-29T08:45:52;7.23;;;4.90;;
8001;SDS011;4046;48.774;8.732;2023-05-29T08:48:24;6.43;;;4.20;;
8001;SDS011;4046;48.774;8.732;2023-05-29T08:50:52;5.93;;;4.77;;
8001;SDS011;4046;48.774;8.732;2023-05-29T08:53:21;5.80;;;4.67;;
8001;SDS011;4046;48.774;8.732;2023-05-29T08:55:48;29.73;;;21.93;;
8001;SDS011;4046;48.774;8.732;2023-05-29T08:58:18;28.43;;;22.03;;
8001;SDS011;4046;48.774;8.732;2023-05-29T09:00:47;25.53;;;19.00;;
8001;SDS011;4046;48.774;8.732;2023-05-29T09:03:14;32.40;;;19.30;;
8001;SDS011;4046;48.774;8.732;2023-05-29T09:05:41;50.53;;;23.40;;
8001;SDS011;4046;48.774;8.732;2023-05-29T09:08:08;30.60;;;21.47;;
8001;SDS011;4046;48.774;8.732;2023-05-29T09:10:35;32.77;;;22.00;;
8001;SDS011;4046;48.774;8.732;2023-05-29T09:13:01;41.40;;;27.37;;
8001;SDS011;4046;48.774;8.732;2023-05-29T09:15:28;61.07;;;37.70;;
8001;SDS011;4046;48.774;8.732;2023-05-29T09:17:54;70.57;;;48.90;;
8001;SDS011;4046;48.774;8.732;2023-05-29T09:20:23;72.63;;;48.40;;
8001;SDS011;4046;48.774;8.732;2023-05-29T09:22:54;68.70;;;46.97;;
8001;SDS011;4046;48.774;8.732;2023-05-29T09:25:22;75.13;;;50.00;;
8001;SDS011;4046;48.774;8.732;2023-05-29T09:27:51;82.43;;;50.70;;
8001;SDS011;4046;48.774;8.732;2023-05-29T09:30:43;80.60;;;52.20;;
8001;SDS011;4046;48.774;8.732;2023-05-29T09:33:11;69.60;;;47.93;;
8001;SDS011;4046;48.774;8.732;2023-05-29T09:35:39;120.03;;;76.03;;
8001;SDS011;4046;48.774;8.732;2023-05-29T09:38:07;111.10;;;66.07;;
8001;SDS011;4046;48.774;8.732;2023-05-29T09:40:36;96.57;;;59.27;;
8001;SDS011;4046;48.774;8.732;2023-05-29T09:43:03;77.33;;;50.10;;
8001;SDS011;4046;48.774;8.732;2023-05-29T09:45:36;53.47;;;36.23;;
8001;SDS011;4046;48.774;8.732;2023-05-29T09:48:07;40.07;;;29.93;;
8001;SDS011;4046;48.774;8.732;2023-05-29T09:50:37;38.43;;;27.07;;
8001;SDS011;4046;48.774;8.732;2023-05-29T09:53:15;34.70;;;23.57;;
8001;SDS011;4046;48.774;8.732;2023-05-29T09:55:46;30.10;;;19.20;;
8001;SDS011;4046;48.774;8.732;2023-05-29T09:58:14;23.93;;;16.67;;
8001;SDS011;4046;48.774;8.732;2023-05-29T10:00:41;16.83;;;13.07;;
8001;SDS011;4046;48.774;8.732;2023-05-29T10:03:09;13.07;;;10.77;;
8001;SDS011;4046;48.774;8.732;2023-05-29T10:05:37;15.30;;;9.37;;
8001;SDS011;4046;48.774;8.732;2023-05-29T10:08:11;10.90;;;8.33;;
8001;SDS011;4046;48.774;8.732;2023-05-29T10:10:43;7.70;;;6.77;;
8001;SDS011;4046;48.774;8.732;2023-05-29T10:13:12;7.60;;;6.50;;
8001;SDS011;4046;48.774;8.732;2023-05-29T10:15:43;8.93;;;6.70;;
8001;SDS011;4046;48.774;8.732;2023-05-29T10:18:32;10.37;;;6.53;;
8001;SDS011;4046;48.774;8.732;2023-05-29T10:21:03;9.50;;;6.37;;
8001;SDS011;4046;48.774;8.732;2023-05-29T10:23:31;6.40;;;5.67;;
8001;SDS011;4046;48.774;8.732;2023-05-29T10:26:24;6.67;;;5.60;;
8001;SDS011;4046;48.774;8.732;2023-05-29T10:29:04;12.03;;;5.70;;
8001;SDS011;4046;48.774;8.732;2023-05-29T10:40:16;8.63;;;4.90;;
8001;SDS011;4046;48.774;8.732;2023-05-29T10:42:49;5.80;;;5.30;;
8001;SDS011;4046;48.774;8.732;2023-05-29T10:47:54;6.00;;;5.50;;
8001;SDS011;4046;48.774;8.732;2023-05-29T10:53:10;6.90;;;4.90;;
8001;SDS011;4046;48.774;8.732;2023-05-29T10:55:40;4.80;;;4.40;;
8001;SDS011;4046;48.774;8.732;2023-05-29T10:58:07;10.57;;;5.33;;
8001;SDS011;4046;48.774;8.732;2023-05-29T11:00:41;5.73;;;5.10;;
8001;SDS011;4046;48.774;8.732;2023-05-29T11:03:08;5.90;;;5.00;;
8001;SDS011;4046;48.774;8.732;2023-05-29T11:13:56;5.47;;;4.67;;
8001;SDS011;4046;48.774;8.732;2023-05-29T11:18:57;4.60;;;4.20;;
8001;SDS011;4046;48.774;8.732;2023-05-29T11:23:58;5.50;;;4.40;;
8001;SDS011;4046;48.774;8.732;2023-05-29T11:26:28;4.93;;;4.53;;
8001;SDS011;4046;48.774;8.732;2023-05-29T11:29:05;6.53;;;4.27;;
8001;SDS011;4046;48.774;8.732;2023-05-29T11:31:36;6.83;;;4.23;;
8001;SDS011;4046;48.774;8.732;2023-05-29T11:34:05;4.70;;;4.30;;
8001;SDS011;4046;48.774;8.732;2023-05-29T11:36:39;4.50;;;4.10;;
8001;SDS011;4046;48.774;8.732;2023-05-29T11:39:08;4.33;;;3.97;;
8001;SDS011;4046;48.774;8.732;2023-05-29T11:41:35;5.00;;;4.60;;
8001;SDS011;4046;48.774;8.732;2023-05-29T11:44:04;5.87;;;4.10;;
8001;SDS011;4046;48.774;8.732;2023-05-29T11:46:34;4.67;;;4.20;;
8001;SDS011;4046;48.774;8.732;2023-05-29T11:49:00;4.70;;;4.10;;
8001;SDS011;4046;48.774;8.732;2023-05-29T11:51:27;4.77;;;4.30;;
8001;SDS011;4046;48.774;8.732;2023-05-29T11:53:53;4.90;;;3.83;;
8001;SDS011;4046;48.774;8.732;2023-05-29T11:56:24;15.87;;;3.93;;
8001;SDS011;4046;48.774;8.732;2023-05-29T11:58:51;4.93;;;4.47;;
8001;SDS011;4046;48.774;8.732;2023-05-29T12:01:23;4.47;;;4.03;;
8001;SDS011;4046;48.774;8.732;2023-05-29T12:03:50;5.20;;;4.67;;
8001;SDS011;4046;48.774;8.732;2023-05-29T12:06:30;4.10;;;3.70;;
8001;SDS011;4046;48.774;8.732;2023-05-29T12:08:58;4.17;;;3.87;;
8001;SDS011;4046;48.774;8.732;2023-05-29T12:11:24;4.53;;;4.23;;
8001;SDS011;4046;48.774;8.732;2023-05-29T12:14:00;4.73;;;4.30;;
8001;SDS011;4046;48.774;8.732;2023-05-29T12:16:30;4.47;;;4.17;;
8001;SDS011;4046;48.774;8.732;2023-05-29T12:18:59;4.23;;;3.93;;
8001;SDS011;4046;48.774;8.732;2023-05-29T12:21:26;5.13;;;3.83;;
8001;SDS011;4046;48.774;8.732;2023-05-29T12:23:53;4.27;;;3.97;;
8001;SDS011;4046;48.774;8.732;2023-05-29T12:26:23;4.17;;;3.87;;
8001;SDS011;4046;48.774;8.732;2023-05-29T12:28:51;4.20;;;3.90;;
8001;SDS011;4046;48.774;8.732;2023-05-29T12:31:27;4.40;;;4.00;;
8001;SDS011;4046;48.774;8.732;2023-05-29T12:33:59;4.40;;;4.00;;
8001;SDS011;4046;48.774;8.732;2023-05-29T12:36:27;4.33;;;3.93;;
8001;SDS011;4046;48.774;8.732;2023-05-29T12:38:54;4.93;;;4.43;;
8001;SDS011;4046;48.774;8.732;2023-05-29T12:41:26;5.07;;;4.33;;
8001;SDS011;4046;48.774;8.732;2023-05-29T12:44:01;3.60;;;3.30;;
8001;SDS011;4046;48.774;8.732;2023-05-29T12:46:34;4.30;;;3.90;;
8001;SDS011;4046;48.774;8.732;2023-05-29T12:49:17;5.43;;;4.90;;
8001;SDS011;4046;48.774;8.732;2023-05-29T12:51:49;5.30;;;3.87;;
8001;SDS011;4046;48.774;8.732;2023-05-29T12:54:16;4.53;;;4.13;;
8001;SDS011;4046;48.774;8.732;2023-05-29T12:56:42;4.77;;;4.37;;
8001;SDS011;4046;48.774;8.732;2023-05-29T12:59:10;4.80;;;4.37;;
8001;SDS011;4046;48.774;8.732;2023-05-29T13:01:37;4.47;;;4.07;;
8001;SDS011;4046;48.774;8.732;2023-05-29T13:04:06;4.17;;;3.77;;
8001;SDS011;4046;48.774;8.732;2023-05-29T13:06:33;5.13;;;4.30;;
8001;SDS011;4046;48.774;8.732;2023-05-29T13:09:01;4.50;;;4.20;;
8001;SDS011;4046;48.774;8.732;2023-05-29T13:11:27;4.33;;;3.77;;
8001;SDS011;4046;48.774;8.732;2023-05-29T13:13:53;4.33;;;3.93;;
8001;SDS011;4046;48.774;8.732;2023-05-29T13:16:20;4.30;;;3.97;;
8001;SDS011;4046;48.774;8.732;2023-05-29T13:18:46;4.67;;;4.27;;
8001;SDS011;4046;48.774;8.732;2023-05-29T13:21:13;4.00;;;3.70;;
8001;SDS011;4046;48.774;8.732;2023-05-29T13:23:39;6.60;;;4.03;;
8001;SDS011;4046;48.774;8.732;2023-05-29T13:26:08;3.90;;;3.60;;
8001;SDS011;4046;48.774;8.732;2023-05-29T13:28:35;4.73;;;3.83;;
8001;SDS011;4046;48.774;8.732;2023-05-29T13:31:01;3.53;;;3.23;;
8001;SDS011;4046;48.774;8.732;2023-05-29T13:33:27;4.60;;;4.20;;
8001;SDS011;4046;48.774;8.732;2023-05-29T13:35:53;4.57;;;4.17;;
8001;SDS011;4046;48.774;8.732;2023-05-29T13:38:20;4.03;;;3.73;;
8001;SDS011;4046;48.774;8.732;2023-05-29T13:40:46;3.90;;;3.60;;
8001;SDS011;4046;48.774;8.732;2023-05-29T13:43:12;3.87;;;3.57;;
8001;SDS011;4046;48.774;8.732;2023-05-29T13:45:38;3.77;;;3.53;;
8001;SDS011;4046;48.774;8.732;2023-05-29T13:48:06;4.00;;;3.70;;
8001;SDS011;4046;48.774;8.732;2023-05-29T13:50:32;3.70;;;3.43;;
8001;SDS011;4046;48.774;8.732;2023-05-29T13:52:58;3.87;;;3.57;;
8001;SDS011;4046;48.774;8.732;2023-05-29T13:55:25;3.83;;;3.47;;
8001;SDS011;4046;48.774;8.732;2023-05-29T13:57:51;4.37;;;4.00;;
8001;SDS011;4046;48.774;8.732;2023-05-29T14:00:18;4.00;;;3.70;;
8001;SDS011;4046;48.774;8.732;2023-05-29T14:02:45;4.00;;;3.60;;
8001;SDS011;4046;48.774;8.732;2023-05-29T14:05:11;3.77;;;3.47;;
8001;SDS011;4046;48.774;8.732;2023-05-29T14:07:37;3.97;;;3.47;;
8001;SDS011;4046;48.774;8.732;2023-05-29T14:10:04;3.63;;;3.33;;
8001;SDS011;4046;48.774;8.732;2023-05-29T14:12:30;3.50;;;3.30;;
8001;SDS011;4046;48.774;8.732;2023-05-29T14:14:57;3.93;;;3.20;;
8001;SDS011;4046;48.774;8.732;2023-05-29T14:17:23;3.63;;;3.37;;
8001;SDS011;4046;48.774;8.732;2023-05-29T14:19:51;3.87;;;3.57;;
8001;SDS011;4046;48.774;8.732;2023-05-29T14:22:18;3.50;;;3.30;;
8001;SDS011;4046;48.774;8.732;2023-05-29T14:24:44;3.83;;;3.53;;
8001;SDS011;4046;48.774;8.732;2023-05-29T14:27:10;3.40;;;3.10;;
8001;SDS011;4046;48.774;8.732;2023-05-29T14:29:36;4.20;;;3.70;;
8001;SDS011;4046;48.774;8.732;2023-05-29T14:32:02;3.33;;;3.10;;
8001;SDS011;4046;48.774;8.732;2023-05-29T14:34:29;4.07;;;3.63;;
8001;SDS011;4046;48.774;8.732;2023-05-29T14:36:55;3.03;;;2.80;;
8001;SDS011;4046;48.774;8.732;2023-05-29T14:39:21;3.40;;;3.10;;
8001;SDS011;4046;48.774;8.732;2023-05-29T14:41:48;3.83;;;3.40;;
8001;SDS011;4046;48.774;8.732;2023-05-29T14:44:14;3.90;;;3.23;;
8001;SDS011;4046;48.774;8.732;2023-05-29T14:46:41;3.50;;;3.30;;
8001;SDS011;4046;48.774;8.732;2023-05-29T14:49:07;3.70;;;3.47;;
8001;SDS011;4046;48.774;8.732;2023-05-29T14:51:34;3.23;;;3.03;;
8001;SDS011;4046;48.774;8.732;2023-05-29T14:54:02;3.40;;;3.20;;
8001;SDS011;4046;48.774;8.732;2023-05-29T14:56:28;3.10;;;2.90;;
8001;SDS011;4046;48.774;8.732;2023-05-29T14:58:54;3.57;;;3.30;;
8001;SDS011;4046;48.774;8.732;2023-05-29T15:01:20;3.80;;;3.50;;
8001;SDS011;4046;48.774;8.732;2023-05-29T15:03:47;3.53;;;3.23;;
8001;SDS011;4046;48.774;8.732;2023-05-29T15:06:13;3.50;;;3.20;;
8001;SDS011;4046;48.774;8.732;2023-05-29T15:08:40;4.10;;;3.67;;
8001;SDS011;4046;48.774;8.732;2023-05-29T15:11:08;3.47;;;3.27;;
8001;SDS011;4046;48.774;8.732;2023-05-29T15:13:35;3.47;;;3.27;;
8001;SDS011;4046;48.774;8.732;2023-05-29T15:16:01;3.20;;;2.90;;
8001;SDS011;4046;48.774;8.732;2023-05-29T15:18:29;3.17;;;2.97;;
8001;SDS011;4046;48.774;8.732;2023-05-29T15:20:55;3.00;;;2.80;;
8001;SDS011;4046;48.774;8.732;2023-05-29T15:23:23;3.00;;;2.80;;
8001;SDS011;4046;48.774;8.732;2023-05-29T15:25:53;3.90;;;3.60;;
8001;SDS011;4046;48.774;8.732;2023-05-29T15:28:19;3.20;;;3.00;;
8001;SDS011;4046;48.774;8.732;2023-05-29T15:30:46;3.37;;;3.17;;
8001;SDS011;4046;48.774;8.732;2023-05-29T15:33:12;3.10;;;2.90;;
8001;SDS011;4046;48.774;8.732;2023-05-29T15:35:39;3.60;;;3.30;;
8001;SDS011;4046;48.774;8.732;2023-05-29T15:38:07;3.70;;;3.40;;
8001;SDS011;4046;48.774;8.732;2023-05-29T15:40:33;2.93;;;2.73;;
8001;SDS011;4046;48.774;8.732;2023-05-29T15:42:59;3.40;;;3.10;;
8001;SDS011;4046;48.774;8.732;2023-05-29T15:45:25;3.33;;;3.10;;
8001;SDS011;4046;48.774;8.732;2023-05-29T15:47:55;3.23;;;3.03;;
8001;SDS011;4046;48.774;8.732;2023-05-29T15:50:21;3.07;;;2.87;;
8001;SDS011;4046;48.774;8.732;2023-05-29T15:52:47;2.70;;;2.50;;
8001;SDS011;4046;48.774;8.732;2023-05-29T15:55:16;3.27;;;3.07;;
8001;SDS011;4046;48.774;8.732;2023-05-29T15:57:43;3.20;;;3.00;;
8001;SDS011;4046;48.774;8.732;2023-05-29T16:00:10;3.50;;;3.20;;
8001;SDS011;4046;48.774;8.732;2023-05-29T16:02:38;3.10;;;2.90;;